createdAt,value
2022-08-25T00:00:03.557Z,0.8
2022-08-25T00:01:12.224Z,0.7
2022-08-25T00:02:22.004Z,0.8
2022-08-25T00:03:30.583Z,0.7
2022-08-25T00:04:41.226Z,0.8
2022-08-25T00:05:51.954Z,0.7
2022-08-25T00:07:03.218Z,1.2
2022-08-25T00:08:12.271Z,0.8
2022-08-25T00:09:21.952Z,0.8
2022-08-25T00:10:30.624Z,0.8
2022-08-25T00:11:40.296Z,0.8
2022-08-25T00:12:48.957Z,0.6
2022-08-25T00:13:58.649Z,0.9
2022-08-25T00:15:08.329Z,1.1
2022-08-25T00:16:17.047Z,1
2022-08-25T00:17:26.702Z,1
2022-08-25T00:18:35.428Z,0.9
2022-08-25T00:19:44.118Z,0.9
2022-08-25T00:20:53.836Z,1
2022-08-25T00:22:02.490Z,1
2022-08-25T00:23:12.174Z,0.9
2022-08-25T00:24:22.157Z,0.7
2022-08-25T00:25:30.841Z,0.9
2022-08-25T00:26:40.544Z,0.7
2022-08-25T00:27:50.199Z,0.9
2022-08-25T00:29:01.592Z,0.7
2022-08-25T00:30:10.490Z,0.8
2022-08-25T00:31:19.273Z,0.8
2022-08-25T00:32:28.837Z,0.9
2022-08-25T00:33:38.512Z,0.7
2022-08-25T00:34:46.197Z,0.7
2022-08-25T00:35:55.886Z,0.8
2022-08-25T00:37:05.566Z,0.8
2022-08-25T00:38:15.255Z,0.7
2022-08-25T00:39:24.918Z,0.8
2022-08-25T00:40:33.648Z,0.9
2022-08-25T00:41:43.340Z,0.8
2022-08-25T00:42:53.011Z,0.8
2022-08-25T00:44:00.700Z,0.8
2022-08-25T00:45:10.361Z,0.7
2022-08-25T00:46:19.128Z,0.6
2022-08-25T00:47:26.800Z,0.9
2022-08-25T00:48:36.467Z,1
2022-08-25T00:49:44.212Z,0.9
2022-08-25T00:50:52.863Z,1
2022-08-25T00:52:02.526Z,1
2022-08-25T00:53:10.187Z,0.9
2022-08-25T00:54:19.887Z,0.8
2022-08-25T00:55:28.673Z,0.9
2022-08-25T00:56:37.331Z,1
2022-08-25T00:57:47.055Z,1.2
2022-08-25T00:58:54.719Z,1.2
2022-08-25T01:00:03.422Z,1.1
2022-08-25T01:01:13.188Z,1.1
2022-08-25T01:02:20.871Z,1.1
2022-08-25T01:03:31.641Z,1.2
2022-08-25T01:04:40.090Z,0.9
2022-08-25T01:05:48.794Z,0.9
2022-08-25T01:06:58.498Z,1.1
2022-08-25T01:08:06.792Z,1.3
2022-08-25T01:09:15.824Z,1.1
2022-08-25T01:10:25.494Z,1.1
2022-08-25T01:11:35.164Z,1
2022-08-25T01:12:44.877Z,1
2022-08-25T01:13:53.534Z,0.8
2022-08-25T01:15:01.199Z,1
2022-08-25T01:16:10.905Z,1
2022-08-25T01:17:19.562Z,0.9
2022-08-25T01:18:27.253Z,1.1
2022-08-25T01:19:36.895Z,1
2022-08-25T01:20:44.579Z,0.8
2022-08-25T01:21:54.252Z,0.9
2022-08-25T01:23:03.905Z,0.9
2022-08-25T01:24:11.581Z,0.7
2022-08-25T01:25:21.286Z,1.1
2022-08-25T01:26:31.090Z,1.2
2022-08-25T01:27:40.593Z,1
2022-08-25T01:28:50.281Z,1.2
2022-08-25T01:29:58.081Z,1.1
2022-08-25T01:31:23.370Z,0.8
2022-08-25T01:32:17.399Z,1
2022-08-25T01:33:26.058Z,1.1
2022-08-25T01:34:35.748Z,0.8
2022-08-25T01:35:43.416Z,1
2022-08-25T01:36:52.077Z,0.9
2022-08-25T01:38:00.778Z,0.9
2022-08-25T01:39:10.422Z,0.9
2022-08-25T01:40:20.192Z,0.8
2022-08-25T01:41:28.884Z,0.8
2022-08-25T01:42:38.530Z,0.7
2022-08-25T01:43:48.204Z,0.7
2022-08-25T01:44:55.872Z,0.6
2022-08-25T01:46:04.609Z,1
2022-08-25T01:47:14.232Z,0.8
2022-08-25T01:48:22.941Z,0.8
2022-08-25T01:49:32.612Z,0.9
2022-08-25T01:50:41.248Z,0.9
2022-08-25T01:51:49.940Z,0.8
2022-08-25T01:52:59.694Z,1
2022-08-25T01:54:08.364Z,0.6
2022-08-25T01:55:17.026Z,1
2022-08-25T01:56:26.690Z,0.8
2022-08-25T01:57:35.354Z,0.9
2022-08-25T01:58:45.168Z,1
2022-08-25T01:59:53.832Z,1.1
2022-08-25T02:01:03.631Z,1.4
2022-08-25T02:02:12.249Z,1
2022-08-25T02:03:21.855Z,1
2022-08-25T02:04:31.694Z,1.1
2022-08-25T02:05:39.347Z,1
2022-08-25T02:06:49.024Z,0.9
2022-08-25T02:07:57.693Z,0.7
2022-08-25T02:09:06.352Z,0.9
2022-08-25T02:10:16.174Z,1.1
2022-08-25T02:11:24.882Z,0.9
2022-08-25T02:12:32.640Z,1.2
2022-08-25T02:13:42.377Z,1.1
2022-08-25T02:14:50.051Z,1
2022-08-25T02:15:59.729Z,1.2
2022-08-25T02:17:09.370Z,0.9
2022-08-25T02:18:17.044Z,1.2
2022-08-25T02:19:26.699Z,1.3
2022-08-25T02:20:35.394Z,1.1
2022-08-25T02:21:44.080Z,1
2022-08-25T02:22:56.801Z,1
2022-08-25T02:24:02.409Z,1
2022-08-25T02:25:11.058Z,1.3
2022-08-25T02:26:20.798Z,1
2022-08-25T02:27:28.503Z,1.3
2022-08-25T02:28:39.155Z,1.4
2022-08-25T02:29:48.824Z,1.5
2022-08-25T02:30:58.544Z,1
2022-08-25T02:32:09.117Z,0.9
2022-08-25T02:33:18.895Z,1
2022-08-25T02:34:27.587Z,0.8
2022-08-25T02:35:37.347Z,0.9
2022-08-25T02:36:46.012Z,1.1
2022-08-25T02:37:56.654Z,1.1
2022-08-25T02:39:05.321Z,1
2022-08-25T02:40:15.031Z,0.9
2022-08-25T02:41:27.758Z,1
2022-08-25T02:42:34.484Z,1
2022-08-25T02:43:43.145Z,0.9
2022-08-25T02:44:51.820Z,1
2022-08-25T02:46:00.553Z,1.1
2022-08-25T02:47:10.146Z,0.9
2022-08-25T02:48:18.836Z,1
2022-08-25T02:49:27.547Z,1.2
2022-08-25T02:50:37.274Z,0.9
2022-08-25T02:51:45.935Z,1.4
2022-08-25T02:52:54.643Z,0.7
2022-08-25T02:54:04.317Z,1.1
2022-08-25T02:55:12.986Z,0.9
2022-08-25T02:56:22.681Z,1.1
2022-08-25T02:57:32.326Z,1.1
2022-08-25T02:58:40.997Z,0.9
2022-08-25T02:59:50.657Z,0.9
2022-08-25T03:00:59.340Z,0.7
2022-08-25T03:02:08.023Z,0.7
2022-08-25T03:03:17.683Z,1.1
2022-08-25T03:04:25.483Z,0.8
2022-08-25T03:05:35.088Z,0.9
2022-08-25T03:06:44.773Z,0.9
2022-08-25T03:07:54.488Z,0.9
2022-08-25T03:09:04.224Z,1.1
2022-08-25T03:10:12.897Z,0.7
2022-08-25T03:11:20.550Z,0.8
2022-08-25T03:12:30.240Z,0.8
2022-08-25T03:13:37.932Z,1
2022-08-25T03:14:47.576Z,1.2
2022-08-25T03:15:57.260Z,1.2
2022-08-25T03:17:08.634Z,0.9
2022-08-25T03:18:17.612Z,1.2
2022-08-25T03:19:25.293Z,1.2
2022-08-25T03:20:34.973Z,1.1
2022-08-25T03:21:44.653Z,1.1
2022-08-25T03:22:53.318Z,1.2
2022-08-25T03:24:03.005Z,1.2
2022-08-25T03:25:11.658Z,1.2
2022-08-25T03:26:21.340Z,1.1
2022-08-25T03:27:31.062Z,1.2
2022-08-25T03:28:39.807Z,1.1
2022-08-25T03:29:48.466Z,1.4
2022-08-25T03:30:58.142Z,0.9
2022-08-25T03:32:07.898Z,1.2
2022-08-25T03:33:17.546Z,1.1
2022-08-25T03:34:27.195Z,0.7
2022-08-25T03:35:35.856Z,0.8
2022-08-25T03:36:45.675Z,1.2
2022-08-25T03:37:54.375Z,1
2022-08-25T03:39:04.040Z,1.1
2022-08-25T03:40:13.832Z,1.1
2022-08-25T03:41:22.447Z,1
2022-08-25T03:42:32.117Z,1
2022-08-25T03:43:40.775Z,1
2022-08-25T03:44:50.451Z,1.1
2022-08-25T03:46:00.185Z,1.1
2022-08-25T03:47:08.822Z,0.9
2022-08-25T03:48:17.495Z,1.4
2022-08-25T03:49:27.166Z,1.2
2022-08-25T03:50:35.856Z,1.1
2022-08-25T03:51:45.541Z,1.2
2022-08-25T03:52:54.247Z,1.5
2022-08-25T03:54:01.913Z,0.9
2022-08-25T03:55:11.610Z,1.2
2022-08-25T03:56:20.288Z,1.4
2022-08-25T03:57:29.993Z,1.2
2022-08-25T03:58:37.707Z,1.4
2022-08-25T03:59:47.378Z,1
2022-08-25T04:00:57.112Z,1.5
2022-08-25T04:02:04.853Z,1.2
2022-08-25T04:03:14.398Z,1.4
2022-08-25T04:04:23.113Z,1.3
2022-08-25T04:05:33.045Z,1.1
2022-08-25T04:06:43.699Z,1.2
2022-08-25T04:07:52.451Z,0.9
2022-08-25T04:09:02.187Z,1.5
2022-08-25T04:10:11.913Z,1.2
2022-08-25T04:11:20.604Z,1.1
2022-08-25T04:12:29.372Z,1
2022-08-25T04:13:39.050Z,1.3
2022-08-25T04:14:47.777Z,1.3
2022-08-25T04:15:57.427Z,1.2
2022-08-25T04:17:06.099Z,1.3
2022-08-25T04:18:14.756Z,1.1
2022-08-25T04:19:24.404Z,1.3
2022-08-25T04:20:33.088Z,1.2
2022-08-25T04:21:41.763Z,1
2022-08-25T04:22:51.537Z,1.2
2022-08-25T04:23:59.189Z,1.2
2022-08-25T04:25:08.867Z,1.3
2022-08-25T04:26:18.521Z,1.1
2022-08-25T04:27:27.172Z,1.5
2022-08-25T04:28:36.935Z,1.4
2022-08-25T04:29:44.615Z,1.3
2022-08-25T04:30:54.262Z,1.3
2022-08-25T04:32:02.988Z,1
2022-08-25T04:33:10.657Z,1.3
2022-08-25T04:34:30.017Z,1.2
2022-08-25T04:35:30.069Z,1.2
2022-08-25T04:36:39.729Z,0.9
2022-08-25T04:37:49.397Z,1.2
2022-08-25T04:38:58.065Z,1.2
2022-08-25T04:40:07.816Z,1.4
2022-08-25T04:41:17.484Z,1.3
2022-08-25T04:42:25.159Z,1.4
2022-08-25T04:43:35.119Z,1.2
2022-08-25T04:44:42.788Z,1.2
2022-08-25T04:45:51.589Z,1.3
2022-08-25T04:47:01.179Z,1.3
2022-08-25T04:48:09.886Z,1.4
2022-08-25T04:49:18.570Z,1.4
2022-08-25T04:50:28.223Z,1.4
2022-08-25T04:51:37.121Z,1
2022-08-25T04:52:46.806Z,1.2
2022-08-25T04:53:56.477Z,1.1
2022-08-25T04:55:05.154Z,1.3
2022-08-25T04:56:12.850Z,1
2022-08-25T04:57:22.565Z,0.9
2022-08-25T04:58:30.207Z,1.1
2022-08-25T04:59:38.873Z,1.1
2022-08-25T05:00:48.586Z,1.2
2022-08-25T05:01:57.190Z,1.5
2022-08-25T05:03:07.884Z,1.6
2022-08-25T05:04:27.964Z,1.4
2022-08-25T05:05:26.151Z,1.3
2022-08-25T05:06:35.818Z,1.4
2022-08-25T05:07:43.470Z,1.3
2022-08-25T05:08:52.134Z,1.1
2022-08-25T05:10:01.876Z,1.5
2022-08-25T05:11:10.524Z,1.1
2022-08-25T05:12:20.220Z,1.1
2022-08-25T05:13:29.861Z,1.4
2022-08-25T05:14:38.576Z,1.2
2022-08-25T05:15:48.312Z,1.3
2022-08-25T05:16:56.941Z,1.1
2022-08-25T05:18:05.632Z,1.4
2022-08-25T05:19:15.296Z,1.7
2022-08-25T05:20:22.979Z,1.3
2022-08-25T05:21:32.676Z,1.3
2022-08-25T05:22:42.350Z,1.2
2022-08-25T05:23:50.003Z,1.3
2022-08-25T05:24:59.662Z,1.7
2022-08-25T05:26:08.338Z,0.8
2022-08-25T05:27:17.015Z,1.4
2022-08-25T05:28:26.680Z,1.4
2022-08-25T05:29:35.340Z,1.5
2022-08-25T05:30:45.004Z,1.3
2022-08-25T05:31:54.728Z,1.2
2022-08-25T05:33:03.308Z,1.1
2022-08-25T05:34:13.123Z,1.1
2022-08-25T05:35:20.731Z,1
2022-08-25T05:36:29.418Z,1
2022-08-25T05:37:39.137Z,1
2022-08-25T05:38:46.789Z,1.3
2022-08-25T05:39:57.485Z,1.4
2022-08-25T05:41:07.116Z,1.4
2022-08-25T05:42:16.794Z,1.1
2022-08-25T05:43:26.622Z,1.2
2022-08-25T05:44:34.284Z,1.1
2022-08-25T05:45:43.999Z,1.1
2022-08-25T05:46:53.627Z,1
2022-08-25T05:48:02.319Z,1.1
2022-08-25T05:49:11.985Z,1.3
2022-08-25T05:50:21.666Z,1
2022-08-25T05:51:31.355Z,1.2
2022-08-25T05:52:41.143Z,1.1
2022-08-25T05:53:48.793Z,0.9
2022-08-25T05:54:58.488Z,0.9
2022-08-25T05:56:07.152Z,1.2
2022-08-25T05:57:15.812Z,1.2
2022-08-25T05:58:25.577Z,1.1
2022-08-25T05:59:34.285Z,1.4
2022-08-25T06:00:43.999Z,1.4
2022-08-25T06:01:52.629Z,1.1
2022-08-25T06:03:01.307Z,1.5
2022-08-25T06:04:10.997Z,1
2022-08-25T06:05:19.624Z,0.9
2022-08-25T06:06:28.333Z,1.2
2022-08-25T06:07:37.993Z,1.2
2022-08-25T06:08:45.645Z,1
2022-08-25T06:09:55.303Z,1.1
2022-08-25T06:11:04.980Z,0.9
2022-08-25T06:12:13.640Z,1.2
2022-08-25T06:13:26.022Z,0.8
2022-08-25T06:14:32.983Z,1.2
2022-08-25T06:15:41.672Z,0.9
2022-08-25T06:16:51.329Z,1
2022-08-25T06:18:01.815Z,1.2
2022-08-25T06:19:11.664Z,0.9
2022-08-25T06:20:20.437Z,1
2022-08-25T06:21:29.138Z,1.3
2022-08-25T06:22:38.754Z,1.6
2022-08-25T06:23:46.410Z,1.4
2022-08-25T06:24:55.062Z,1.4
2022-08-25T06:26:04.722Z,1.1
2022-08-25T06:27:13.387Z,1.5
2022-08-25T06:28:23.039Z,1.4
2022-08-25T06:29:32.720Z,1.2
2022-08-25T06:30:41.372Z,1.3
2022-08-25T06:31:51.139Z,0.9
2022-08-25T06:32:59.710Z,1.4
2022-08-25T06:34:08.364Z,1.3
2022-08-25T06:35:18.040Z,1.2
2022-08-25T06:36:25.703Z,1.2
2022-08-25T06:37:35.441Z,1
2022-08-25T06:38:44.093Z,1.1
2022-08-25T06:39:52.816Z,1.1
2022-08-25T06:41:02.450Z,1
2022-08-25T06:42:11.145Z,0.9
2022-08-25T06:43:19.824Z,1.2
2022-08-25T06:44:29.487Z,1.1
2022-08-25T06:45:37.164Z,0.8
2022-08-25T06:46:47.067Z,1.1
2022-08-25T06:47:55.654Z,1
2022-08-25T06:49:04.320Z,1
2022-08-25T06:50:13.999Z,0.7
2022-08-25T06:51:22.714Z,1.1
2022-08-25T06:52:32.386Z,1
2022-08-25T06:53:42.047Z,1
2022-08-25T06:54:51.706Z,1.3
2022-08-25T06:56:07.432Z,1.2
2022-08-25T06:57:17.133Z,0.9
2022-08-25T06:58:25.840Z,1.1
2022-08-25T06:59:35.510Z,1.3
2022-08-25T07:00:45.233Z,0.8
2022-08-25T07:01:54.971Z,0.9
2022-08-25T07:03:04.646Z,1
2022-08-25T07:04:14.322Z,0.8
2022-08-25T07:06:18.575Z,0.8
2022-08-25T07:07:28.195Z,0.8
2022-08-25T07:08:37.890Z,0.9
2022-08-25T07:09:47.590Z,0.7
2022-08-25T07:10:57.291Z,0.5
2022-08-25T07:12:06.989Z,0.5
2022-08-25T07:13:16.680Z,0.6
2022-08-25T07:14:26.413Z,0.4
2022-08-25T07:15:35.160Z,0.5
2022-08-25T07:16:49.269Z,0.8
2022-08-25T07:17:53.473Z,0.7
2022-08-25T07:19:03.138Z,0.6
2022-08-25T07:20:13.609Z,0.6
2022-08-25T07:21:24.453Z,0.5
2022-08-25T07:22:32.206Z,0.5
2022-08-25T07:23:40.856Z,0.5
2022-08-25T07:24:48.500Z,0.4
2022-08-25T07:25:58.155Z,0.5
2022-08-25T07:27:05.828Z,0.4
2022-08-25T07:28:14.461Z,0.5
2022-08-25T07:29:26.623Z,0.6
2022-08-25T07:30:33.792Z,0.5
2022-08-25T07:31:44.483Z,0.7
2022-08-25T07:32:55.057Z,0.4
2022-08-25T07:34:01.739Z,0.5
2022-08-25T07:35:11.371Z,0.4
2022-08-25T07:36:22.010Z,0.5
2022-08-25T07:37:47.309Z,0.4
2022-08-25T07:38:42.304Z,0.5
2022-08-25T07:39:50.964Z,0.6
2022-08-25T07:41:00.596Z,0.5
2022-08-25T07:42:11.816Z,0.4
2022-08-25T07:43:18.908Z,0.3
2022-08-25T07:44:27.953Z,0.8
2022-08-25T07:45:36.217Z,0.6
2022-08-25T07:46:45.918Z,0.6
2022-08-25T07:47:55.678Z,0.3
2022-08-25T07:49:03.323Z,0.3
2022-08-25T07:50:13.059Z,0.5
2022-08-25T07:51:21.711Z,0.7
2022-08-25T07:52:29.337Z,0.4
2022-08-25T07:53:39.022Z,0.4
2022-08-25T07:54:48.652Z,0.7
2022-08-25T07:55:58.365Z,0.4
2022-08-25T07:57:05.990Z,0.5
2022-08-25T07:58:14.645Z,0.4
2022-08-25T07:59:24.320Z,0.5
2022-08-25T08:00:31.995Z,0.3
2022-08-25T08:01:41.702Z,0.4
2022-08-25T08:02:51.398Z,0.4
2022-08-25T08:04:03.345Z,0.2
2022-08-25T08:05:11.594Z,0.5
2022-08-25T08:06:20.247Z,0.5
2022-08-25T08:07:42.408Z,0.4
2022-08-25T08:08:40.575Z,0.5
2022-08-25T08:10:00.359Z,0.7
2022-08-25T08:11:04.400Z,0.6
2022-08-25T08:12:10.493Z,0.4
2022-08-25T08:13:19.501Z,0.4
2022-08-25T08:14:28.872Z,0.7
2022-08-25T08:15:37.599Z,0.3
2022-08-25T08:16:46.259Z,0.4
2022-08-25T08:17:55.920Z,0.5
2022-08-25T08:19:05.585Z,0.3
2022-08-25T08:20:15.238Z,0.4
2022-08-25T08:21:24.896Z,0.4
2022-08-25T08:22:33.546Z,0.6
2022-08-25T08:23:43.215Z,0.6
2022-08-25T08:24:54.364Z,0.3
2022-08-25T08:26:02.503Z,0.5
2022-08-25T08:27:12.165Z,0.4
2022-08-25T08:28:20.826Z,0.7
2022-08-25T08:29:30.496Z,0.5
2022-08-25T08:30:40.166Z,0.6
2022-08-25T08:31:49.860Z,0.2
2022-08-25T08:33:09.518Z,0.3
2022-08-25T08:34:09.122Z,0.2
2022-08-25T08:35:17.826Z,0.3
2022-08-25T08:36:27.473Z,0.4
2022-08-25T08:37:36.127Z,0.5
2022-08-25T08:38:44.782Z,0.3
2022-08-25T08:39:54.463Z,0.4
2022-08-25T08:41:03.079Z,0.3
2022-08-25T08:42:12.848Z,0.4
2022-08-25T08:43:22.405Z,0.2
2022-08-25T08:44:31.061Z,0.2
2022-08-25T08:45:43.895Z,0.3
2022-08-25T08:46:51.460Z,0.3
2022-08-25T08:48:01.049Z,0.4
2022-08-25T08:49:10.697Z,0.3
2022-08-25T08:50:24.077Z,0.3
2022-08-25T08:51:32.632Z,0.3
2022-08-25T08:52:40.649Z,0.5
2022-08-25T08:53:49.448Z,0.3
2022-08-25T08:54:59.112Z,0.3
2022-08-25T08:56:07.778Z,0.4
2022-08-25T08:57:18.415Z,0.5
2022-08-25T08:58:28.042Z,0.3
2022-08-25T08:59:37.708Z,0.4
2022-08-25T09:00:52.127Z,0.3
2022-08-25T09:01:57.038Z,0.1
2022-08-25T09:03:06.846Z,0.4
2022-08-25T09:04:16.399Z,0.4
2022-08-25T09:05:26.230Z,0.3
2022-08-25T09:06:34.879Z,0.2
2022-08-25T09:07:44.524Z,0.4
2022-08-25T09:08:53.207Z,0.4
2022-08-25T09:10:02.979Z,0.3
2022-08-25T09:11:12.606Z,0.4
2022-08-25T09:12:22.269Z,0.2
2022-08-25T09:13:30.933Z,0.2
2022-08-25T09:14:38.603Z,0.4
2022-08-25T09:15:47.268Z,0.2
2022-08-25T09:16:56.941Z,0.4
2022-08-25T09:18:06.603Z,0.4
2022-08-25T09:19:21.188Z,0.3
2022-08-25T09:20:25.953Z,0.3
2022-08-25T09:21:33.637Z,0.4
2022-08-25T09:22:43.330Z,0.4
2022-08-25T09:23:51.971Z,0.1
2022-08-25T09:25:01.822Z,0.5
2022-08-25T09:26:10.342Z,0.5
2022-08-25T09:27:18.021Z,0.3
2022-08-25T09:28:27.728Z,0.2
2022-08-25T09:29:36.391Z,0.5
2022-08-25T09:30:45.083Z,0.4
2022-08-25T09:31:54.730Z,0.3
2022-08-25T09:33:03.443Z,0.3
2022-08-25T09:34:13.079Z,0.3
2022-08-25T09:35:23.764Z,0.4
2022-08-25T09:36:37.348Z,0.4
2022-08-25T09:37:44.133Z,0.4
2022-08-25T09:38:51.780Z,0.3
2022-08-25T09:40:01.501Z,0.4
2022-08-25T09:41:11.121Z,0.4
2022-08-25T09:42:22.057Z,0.2
2022-08-25T09:43:28.454Z,0.5
2022-08-25T09:44:39.161Z,0.2
2022-08-25T09:45:47.813Z,0.2
2022-08-25T09:46:57.499Z,0.1
2022-08-25T09:48:06.227Z,0.3
2022-08-25T09:49:13.887Z,0.3
2022-08-25T09:50:24.549Z,0.3
2022-08-25T09:51:37.926Z,0.2
2022-08-25T09:52:43.889Z,0.3
2022-08-25T09:53:51.548Z,0.2
2022-08-25T09:55:00.240Z,0.3
2022-08-25T09:56:09.910Z,0.1
2022-08-25T09:57:20.677Z,0.3
2022-08-25T09:58:30.336Z,0.4
2022-08-25T09:59:39.984Z,0.3
2022-08-25T10:00:48.638Z,0.3
2022-08-25T10:01:58.353Z,0.4
2022-08-25T10:03:08.283Z,0.3
2022-08-25T10:04:20.403Z,0.3
2022-08-25T10:05:28.367Z,0.1
2022-08-25T10:06:37.026Z,0.1
2022-08-25T10:07:46.698Z,0.2
2022-08-25T10:08:56.386Z,0.5
2022-08-25T10:10:05.058Z,0.3
2022-08-25T10:11:15.702Z,0.3
2022-08-25T10:12:27.830Z,0.3
2022-08-25T10:13:36.062Z,0.4
2022-08-25T10:14:45.738Z,0.2
2022-08-25T10:15:56.470Z,0.4
2022-08-25T10:17:06.115Z,0.2
2022-08-25T10:18:15.793Z,0.4
2022-08-25T10:19:28.111Z,0.4
2022-08-25T10:20:37.825Z,0.4
2022-08-25T10:21:46.629Z,0.2
2022-08-25T10:22:57.288Z,0.2
2022-08-25T10:24:07.007Z,0.3
2022-08-25T10:25:14.667Z,0.2
2022-08-25T10:26:24.398Z,0.2
2022-08-25T10:27:34.063Z,0.6
2022-08-25T10:28:41.769Z,0.3
2022-08-25T10:29:51.445Z,0.2
2022-08-25T10:31:00.220Z,0.1
2022-08-25T10:32:12.126Z,0.1
2022-08-25T10:33:19.473Z,0.3
2022-08-25T10:34:27.147Z,0.3
2022-08-25T10:35:36.836Z,0.2
2022-08-25T10:36:46.917Z,0.2
2022-08-25T10:37:54.144Z,0.3
2022-08-25T10:39:03.836Z,0.5
2022-08-25T10:40:14.506Z,0.1
2022-08-25T10:41:24.110Z,0.2
2022-08-25T10:42:32.746Z,0.3
2022-08-25T10:43:40.464Z,0.3
2022-08-25T10:44:49.118Z,0.2
2022-08-25T10:45:57.859Z,0.2
2022-08-25T10:47:06.422Z,0.3
2022-08-25T10:48:16.120Z,0.4
2022-08-25T10:49:23.787Z,0.3
2022-08-25T10:50:32.456Z,0.1
2022-08-25T10:51:42.102Z,0.4
2022-08-25T10:52:48.750Z,0.2
2022-08-25T10:53:58.532Z,0.2
2022-08-25T10:55:07.229Z,0.2
2022-08-25T10:56:15.920Z,0.1
2022-08-25T10:57:25.581Z,0.3
2022-08-25T10:58:35.276Z,0.4
2022-08-25T10:59:44.947Z,0.2
2022-08-25T11:00:54.853Z,0.2
2022-08-25T11:02:02.388Z,0.2
2022-08-25T11:03:12.079Z,0.2
2022-08-25T11:04:20.721Z,0.2
2022-08-25T11:05:31.445Z,0.2
2022-08-25T11:06:41.054Z,0.4
2022-08-25T11:07:49.708Z,0.4
2022-08-25T11:08:59.371Z,0.4
2022-08-25T11:10:09.042Z,0.4
2022-08-25T11:11:17.691Z,0.4
2022-08-25T11:12:27.368Z,0.4
2022-08-25T11:13:37.025Z,0.3
2022-08-25T11:14:44.683Z,0.2
2022-08-25T11:16:15.750Z,0.2
2022-08-25T11:17:04.030Z,0.2
2022-08-25T11:18:14.891Z,0.3
2022-08-25T11:19:24.470Z,0.3
2022-08-25T11:20:33.141Z,0.2
2022-08-25T11:21:42.832Z,0.1
2022-08-25T11:22:51.497Z,0.4
2022-08-25T11:23:59.193Z,0.5
2022-08-25T11:25:08.831Z,0.1
2022-08-25T11:26:18.490Z,0.3
2022-08-25T11:27:28.128Z,0.2
2022-08-25T11:28:38.859Z,0
2022-08-25T11:29:46.531Z,0.2
2022-08-25T11:30:56.255Z,0.3
2022-08-25T11:32:05.834Z,0.3
2022-08-25T11:33:13.482Z,0.3
2022-08-25T11:34:23.166Z,0.1
2022-08-25T11:35:30.831Z,0.1
2022-08-25T11:36:40.479Z,0.2
2022-08-25T11:37:49.119Z,0.4
2022-08-25T11:38:56.761Z,0.5
2022-08-25T11:40:06.440Z,0.2
2022-08-25T11:41:17.117Z,0.3
2022-08-25T11:42:26.754Z,0.2
2022-08-25T11:43:36.433Z,0.6
2022-08-25T11:44:53.039Z,0.2
2022-08-25T11:45:56.726Z,0.3
2022-08-25T11:47:06.361Z,0.2
2022-08-25T11:48:15.017Z,0.4
2022-08-25T11:49:24.670Z,0.3
2022-08-25T11:50:33.322Z,0.3
2022-08-25T11:51:43.950Z,0.3
2022-08-25T11:52:53.615Z,0.3
2022-08-25T11:54:03.299Z,0.2
2022-08-25T11:55:12.928Z,0.2
2022-08-25T11:56:21.600Z,0.2
2022-08-25T11:57:30.311Z,0.2
2022-08-25T11:58:40.680Z,0.1
2022-08-25T11:59:47.632Z,0.1
2022-08-25T12:00:58.288Z,0.2
2022-08-25T12:02:06.936Z,0.5
2022-08-25T12:03:15.602Z,0.4
2022-08-25T12:04:24.409Z,0.2
2022-08-25T12:05:33.118Z,0.2
2022-08-25T12:06:41.715Z,0.2
2022-08-25T12:07:51.358Z,0.3
2022-08-25T12:09:00.982Z,0.4
2022-08-25T12:10:10.652Z,0.4
2022-08-25T12:11:19.356Z,0.4
2022-08-25T12:12:28.024Z,0.3
2022-08-25T12:13:37.824Z,0.4
2022-08-25T12:14:47.475Z,0.3
2022-08-25T12:15:56.177Z,0.3
2022-08-25T12:17:05.883Z,0.2
2022-08-25T12:18:15.538Z,0.3
2022-08-25T12:19:25.213Z,0.1
2022-08-25T12:20:33.905Z,0.1
2022-08-25T12:21:43.567Z,0.3
2022-08-25T12:22:53.284Z,0.4
2022-08-25T12:24:01.957Z,0.3
2022-08-25T12:25:10.623Z,0.3
2022-08-25T12:26:20.256Z,0.2
2022-08-25T12:27:33.475Z,0.2
2022-08-25T12:28:40.580Z,0.1
2022-08-25T12:29:49.265Z,0.2
2022-08-25T12:30:58.030Z,0.4
2022-08-25T12:32:07.857Z,0.2
2022-08-25T12:33:17.227Z,0.3
2022-08-25T12:34:27.101Z,0.5
2022-08-25T12:35:36.518Z,0.5
2022-08-25T12:36:44.192Z,0.3
2022-08-25T12:37:53.871Z,0.1
2022-08-25T12:39:02.569Z,0.2
2022-08-25T12:40:12.260Z,0.6
2022-08-25T12:41:21.891Z,0.3
2022-08-25T12:42:31.547Z,0.2
2022-08-25T12:43:42.373Z,0.3
2022-08-25T12:44:51.996Z,0.4
2022-08-25T12:46:00.683Z,0.5
2022-08-25T12:47:11.284Z,0.3
2022-08-25T12:48:19.924Z,0.3
2022-08-25T12:49:28.583Z,0.4
2022-08-25T12:50:38.279Z,0.5
2022-08-25T12:51:48.656Z,0.4
2022-08-25T12:52:56.686Z,0.3
2022-08-25T12:54:08.624Z,0.5
2022-08-25T12:55:17.017Z,0.4
2022-08-25T12:56:26.717Z,0.3
2022-08-25T12:57:36.383Z,0.3
2022-08-25T12:58:59.182Z,0.3
2022-08-25T12:59:57.678Z,0.4
2022-08-25T13:01:06.995Z,0.3
2022-08-25T13:02:17.030Z,0.6
2022-08-25T13:03:26.701Z,0.1
2022-08-25T13:04:35.300Z,0.1
2022-08-25T13:05:44.981Z,0.5
2022-08-25T13:06:53.642Z,0.3
2022-08-25T13:08:03.442Z,0.6
2022-08-25T13:09:14.069Z,0.4
2022-08-25T13:10:21.716Z,0.5
2022-08-25T13:11:32.114Z,0.3
2022-08-25T13:12:41.023Z,0.4
2022-08-25T13:13:48.731Z,0.1
2022-08-25T13:14:58.430Z,0.5
2022-08-25T13:16:08.137Z,0.5
2022-08-25T13:17:15.704Z,0.4
2022-08-25T13:18:25.362Z,0.2
2022-08-25T13:19:34.694Z,0.3
2022-08-25T13:20:44.040Z,0.4
2022-08-25T13:21:54.581Z,0.3
2022-08-25T13:23:04.246Z,0.6
2022-08-25T13:24:13.638Z,0.2
2022-08-25T13:25:24.334Z,0.4
2022-08-25T13:26:32.981Z,0.3
2022-08-25T13:27:42.655Z,0.5
2022-08-25T13:28:53.286Z,0.4
2022-08-25T13:30:03.659Z,0.3
2022-08-25T13:31:12.682Z,0.4
2022-08-25T13:32:21.557Z,0.6
2022-08-25T13:33:31.025Z,0.3
2022-08-25T13:34:42.711Z,0.2
2022-08-25T13:35:49.418Z,0.3
2022-08-25T13:37:00.084Z,0.3
2022-08-25T13:38:09.738Z,0.6
2022-08-25T13:39:25.289Z,0.5
2022-08-25T13:40:30.073Z,0.3
2022-08-25T13:41:39.685Z,0.3
2022-08-25T13:42:54.659Z,0.4
2022-08-25T13:43:59.015Z,0.3
2022-08-25T13:45:05.649Z,0.4
2022-08-25T13:46:16.284Z,0.3
2022-08-25T13:47:24.930Z,0.5
2022-08-25T13:48:34.603Z,0.2
2022-08-25T13:49:43.252Z,0.3
2022-08-25T13:50:53.104Z,0.3
2022-08-25T13:52:02.575Z,0.3
2022-08-25T13:53:11.301Z,0.2
2022-08-25T13:54:20.912Z,0.3
2022-08-25T13:55:30.535Z,0.1
2022-08-25T13:56:41.681Z,0.3
2022-08-25T13:57:50.819Z,0.4
2022-08-25T13:58:59.483Z,0.4
2022-08-25T14:00:09.376Z,0.4
2022-08-25T14:01:22.543Z,0.7
2022-08-25T14:02:29.510Z,0.5
2022-08-25T14:03:39.232Z,0.6
2022-08-25T14:04:51.001Z,0.4
2022-08-25T14:05:59.420Z,0.5
2022-08-25T14:07:08.307Z,0.4
2022-08-25T14:08:25.704Z,0.5
2022-08-25T14:09:28.556Z,0.5
2022-08-25T14:10:38.600Z,0.4
2022-08-25T14:11:46.798Z,0.4
2022-08-25T14:12:57.457Z,0.3
2022-08-25T14:14:07.086Z,0.2
2022-08-25T14:15:15.751Z,0.2
2022-08-25T14:16:25.678Z,0.5
2022-08-25T14:17:38.632Z,0.4
2022-08-25T14:18:44.736Z,0.4
2022-08-25T14:19:54.487Z,0.2
2022-08-25T14:21:03.069Z,0.4
2022-08-25T14:22:12.737Z,0.2
2022-08-25T14:23:23.405Z,0.4
2022-08-25T14:24:32.051Z,0.4
2022-08-25T14:25:42.331Z,0.2
2022-08-25T14:26:53.792Z,0.4
2022-08-25T14:28:09.089Z,0.4
2022-08-25T14:29:12.661Z,0.4
2022-08-25T14:30:28.673Z,0.6
2022-08-25T14:31:33.136Z,0.5
2022-08-25T14:32:42.791Z,0.7
2022-08-25T14:33:52.415Z,0.4
2022-08-25T14:35:05.038Z,0.4
2022-08-25T14:36:11.726Z,0.2
2022-08-25T14:37:25.282Z,0.1
2022-08-25T14:38:31.033Z,0.4
2022-08-25T14:39:41.697Z,0.4
2022-08-25T14:40:52.480Z,0.4
2022-08-25T14:42:01.130Z,0.2
2022-08-25T14:43:10.849Z,0.4
2022-08-25T14:44:20.440Z,0.5
2022-08-25T14:45:29.183Z,0.3
2022-08-25T14:46:37.824Z,0.3
2022-08-25T14:47:49.711Z,0.2
2022-08-25T14:48:56.154Z,0.5
2022-08-25T14:50:06.832Z,0.2
2022-08-25T14:51:16.489Z,0.6
2022-08-25T14:52:24.193Z,0.4
2022-08-25T14:53:33.936Z,0.4
2022-08-25T14:54:42.521Z,0.3
2022-08-25T14:55:52.223Z,0.5
2022-08-25T14:57:01.869Z,0.2
2022-08-25T14:58:10.546Z,0.4
2022-08-25T14:59:20.231Z,0.6
2022-08-25T15:00:29.892Z,0.2
2022-08-25T15:01:38.523Z,0.4
2022-08-25T15:02:48.170Z,0.5
2022-08-25T15:03:57.908Z,0.6
2022-08-25T15:05:06.502Z,0.4
2022-08-25T15:06:16.138Z,0.2
2022-08-25T15:07:23.821Z,0.9
2022-08-25T15:08:33.595Z,0.7
2022-08-25T15:09:43.130Z,0.3
2022-08-25T15:10:51.825Z,0.4
2022-08-25T15:12:01.509Z,0.4
2022-08-25T15:13:10.209Z,0.6
2022-08-25T15:14:18.852Z,0.6
2022-08-25T15:15:29.557Z,0.4
2022-08-25T15:16:39.287Z,0.4
2022-08-25T15:17:49.396Z,0.4
2022-08-25T15:18:58.509Z,0.4
2022-08-25T15:20:07.147Z,0.4
2022-08-25T15:21:16.874Z,0.3
2022-08-25T15:22:24.506Z,0.6
2022-08-25T15:23:35.249Z,0.5
2022-08-25T15:24:44.782Z,0.1
2022-08-25T15:25:54.415Z,0.2
2022-08-25T15:27:04.116Z,0.8
2022-08-25T15:28:13.750Z,0.5
2022-08-25T15:29:23.395Z,0.6
2022-08-25T15:30:33.023Z,0.5
2022-08-25T15:31:41.770Z,0.3
2022-08-25T15:32:51.423Z,0.5
2022-08-25T15:34:01.010Z,0.6
2022-08-25T15:35:10.656Z,0.4
2022-08-25T15:36:20.604Z,0.5
2022-08-25T15:37:28.966Z,0.4
2022-08-25T15:38:36.683Z,0.5
2022-08-25T15:39:46.373Z,0.4
2022-08-25T15:40:54.025Z,0.6
2022-08-25T15:42:02.658Z,0.5
2022-08-25T15:43:12.379Z,0.5
2022-08-25T15:44:20.110Z,0.6
2022-08-25T15:45:29.782Z,0.3
2022-08-25T15:46:38.481Z,0.4
2022-08-25T15:47:48.078Z,0.2
2022-08-25T15:48:56.737Z,0.3
2022-08-25T15:50:04.396Z,0.5
2022-08-25T15:51:13.050Z,0.5
2022-08-25T15:52:20.697Z,0.4
2022-08-25T15:53:30.384Z,0.4
2022-08-25T15:54:40.043Z,0.6
2022-08-25T15:55:49.703Z,0.5
2022-08-25T15:57:00.348Z,0.5
2022-08-25T15:58:09.149Z,0.6
2022-08-25T15:59:18.666Z,0.5